Portada
METAR-TAF:

METAR-TAF

Aeroports :

Jacksonville, Florida, Estats Units d'Amèrica

latitud: 30-20-10N, longitud: 081-30-53W, altitud: 12 m

Observació

L'informe es va fer fa 46 minuts, a les 10:53 UTC
Vent calma
Temperatura 1°C
Humitat 86%
Pressió 1027 hPa
Visibilitat: 11.3 km
Cel clar

METAR: KCRG 191053Z 00000KT 7SM CLR 01/M01 A3033 RMK AO2 SLP270 T00111011

Hora: 06:39 (11:39 UTC)

Pronòstic

L'informe es va fer fa 6 hores i 10 minuts, a les 05:29 UTC
Pronòstic vàlid del 19 a les 06 UTC al 20 a les 06 UTC
Vent 4 kt amb direcció variable
Visibilitat: 10 km
Cel clar

TAF: KCRG 190529Z 1906/2006 VRB04KT P6SM SKC

Observacions i pronòstics meteorològics de més de 4000 aeroports (METAR i TAF).

Les estacions disponibles són els punts grocs i vermells al mapa.

Posi el ratolí al punt desitjat per veure el nom de l'estació.

Feu clic per veure les observacions i els pronòstics meteorològics.

Per canviar el mapa: feu clic els botons verds amb una creu de color negre per apropar; al botó verd amb un guió per allunyar la imatge; o en les fletxes verdes per a mapes adjacents.


METAR-TAF: